sensor_id;sensor_type;location;lat;lon;timestamp;P1;durP1;ratioP1;P2;durP2;ratioP2
25758;SDS011;13604;52.496;13.456;2022-07-06T00:01:27;5.40;;;1.23;;
25758;SDS011;13604;52.496;13.456;2022-07-06T00:03:52;6.15;;;1.45;;
25758;SDS011;13604;52.496;13.456;2022-07-06T00:06:18;1.10;;;0.93;;
25758;SDS011;13604;52.496;13.456;2022-07-06T00:08:43;4.75;;;1.00;;
25758;SDS011;13604;52.496;13.456;2022-07-06T00:11:09;4.20;;;0.98;;
25758;SDS011;13604;52.496;13.456;2022-07-06T00:13:35;3.65;;;1.00;;
25758;SDS011;13604;52.496;13.456;2022-07-06T00:16:01;3.78;;;0.93;;
25758;SDS011;13604;52.496;13.456;2022-07-06T00:18:26;3.65;;;1.10;;
25758;SDS011;13604;52.496;13.456;2022-07-06T00:20:52;4.80;;;1.00;;
25758;SDS011;13604;52.496;13.456;2022-07-06T00:23:17;2.20;;;1.00;;
25758;SDS011;13604;52.496;13.456;2022-07-06T00:25:42;4.28;;;1.20;;
25758;SDS011;13604;52.496;13.456;2022-07-06T00:28:08;5.47;;;1.38;;
25758;SDS011;13604;52.496;13.456;2022-07-06T00:30:33;2.28;;;0.90;;
25758;SDS011;13604;52.496;13.456;2022-07-06T00:32:58;5.03;;;1.23;;
25758;SDS011;13604;52.496;13.456;2022-07-06T00:35:24;2.00;;;1.20;;
25758;SDS011;13604;52.496;13.456;2022-07-06T00:37:50;4.93;;;1.45;;
25758;SDS011;13604;52.496;13.456;2022-07-06T00:40:15;7.22;;;1.40;;
25758;SDS011;13604;52.496;13.456;2022-07-06T00:42:41;4.05;;;1.23;;
25758;SDS011;13604;52.496;13.456;2022-07-06T00:45:08;7.00;;;1.23;;
25758;SDS011;13604;52.496;13.456;2022-07-06T00:47:34;3.67;;;1.48;;
25758;SDS011;13604;52.496;13.456;2022-07-06T00:50:00;3.90;;;1.25;;
25758;SDS011;13604;52.496;13.456;2022-07-06T00:53:02;5.22;;;1.60;;
25758;SDS011;13604;52.496;13.456;2022-07-06T00:55:30;3.80;;;1.38;;
25758;SDS011;13604;52.496;13.456;2022-07-06T00:58:03;2.40;;;1.30;;
25758;SDS011;13604;52.496;13.456;2022-07-06T01:00:29;1.92;;;1.10;;
25758;SDS011;13604;52.496;13.456;2022-07-06T01:02:54;2.30;;;1.23;;
25758;SDS011;13604;52.496;13.456;2022-07-06T01:05:20;4.65;;;1.10;;
25758;SDS011;13604;52.496;13.456;2022-07-06T01:07:47;2.50;;;1.13;;
25758;SDS011;13604;52.496;13.456;2022-07-06T01:10:14;3.70;;;1.13;;
25758;SDS011;13604;52.496;13.456;2022-07-06T01:12:41;4.10;;;1.15;;
25758;SDS011;13604;52.496;13.456;2022-07-06T01:15:09;1.65;;;1.00;;
25758;SDS011;13604;52.496;13.456;2022-07-06T01:17:35;2.35;;;1.08;;
25758;SDS011;13604;52.496;13.456;2022-07-06T01:22:35;3.90;;;1.00;;
25758;SDS011;13604;52.496;13.456;2022-07-06T01:25:01;5.65;;;1.20;;
25758;SDS011;13604;52.496;13.456;2022-07-06T01:27:26;3.08;;;0.90;;
25758;SDS011;13604;52.496;13.456;2022-07-06T01:29:51;6.40;;;1.35;;
25758;SDS011;13604;52.496;13.456;2022-07-06T01:32:17;6.50;;;1.23;;
25758;SDS011;13604;52.496;13.456;2022-07-06T01:34:42;4.30;;;1.48;;
25758;SDS011;13604;52.496;13.456;2022-07-06T01:37:07;6.90;;;1.13;;
25758;SDS011;13604;52.496;13.456;2022-07-06T01:39:32;3.10;;;0.90;;
25758;SDS011;13604;52.496;13.456;2022-07-06T01:41:58;3.03;;;1.17;;
25758;SDS011;13604;52.496;13.456;2022-07-06T01:44:23;3.33;;;1.08;;
25758;SDS011;13604;52.496;13.456;2022-07-06T01:46:48;4.85;;;1.20;;
25758;SDS011;13604;52.496;13.456;2022-07-06T01:49:14;2.92;;;1.02;;
25758;SDS011;13604;52.496;13.456;2022-07-06T01:51:39;2.38;;;1.05;;
25758;SDS011;13604;52.496;13.456;2022-07-06T01:54:04;3.70;;;1.23;;
25758;SDS011;13604;52.496;13.456;2022-07-06T01:56:30;2.03;;;0.90;;
25758;SDS011;13604;52.496;13.456;2022-07-06T01:58:55;4.10;;;0.88;;
25758;SDS011;13604;52.496;13.456;2022-07-06T02:01:22;9.63;;;1.55;;
25758;SDS011;13604;52.496;13.456;2022-07-06T02:03:47;2.42;;;0.80;;
25758;SDS011;13604;52.496;13.456;2022-07-06T02:06:13;3.75;;;0.88;;
25758;SDS011;13604;52.496;13.456;2022-07-06T02:08:38;2.53;;;1.50;;
25758;SDS011;13604;52.496;13.456;2022-07-06T02:11:05;4.40;;;1.58;;
25758;SDS011;13604;52.496;13.456;2022-07-06T02:13:31;5.70;;;1.25;;
25758;SDS011;13604;52.496;13.456;2022-07-06T02:15:57;1.95;;;1.20;;
25758;SDS011;13604;52.496;13.456;2022-07-06T02:18:22;1.83;;;1.23;;
25758;SDS011;13604;52.496;13.456;2022-07-06T02:20:47;3.35;;;1.17;;
25758;SDS011;13604;52.496;13.456;2022-07-06T02:23:13;4.50;;;1.50;;
25758;SDS011;13604;52.496;13.456;2022-07-06T02:25:38;3.45;;;1.50;;
25758;SDS011;13604;52.496;13.456;2022-07-06T02:28:03;3.35;;;1.40;;
25758;SDS011;13604;52.496;13.456;2022-07-06T02:30:29;4.35;;;1.65;;
25758;SDS011;13604;52.496;13.456;2022-07-06T02:32:54;6.20;;;1.55;;
25758;SDS011;13604;52.496;13.456;2022-07-06T02:35:19;4.47;;;1.48;;
25758;SDS011;13604;52.496;13.456;2022-07-06T02:37:45;5.80;;;1.77;;
25758;SDS011;13604;52.496;13.456;2022-07-06T02:40:10;4.63;;;1.35;;
25758;SDS011;13604;52.496;13.456;2022-07-06T02:42:36;5.25;;;1.30;;
25758;SDS011;13604;52.496;13.456;2022-07-06T02:45:02;4.70;;;1.33;;
25758;SDS011;13604;52.496;13.456;2022-07-06T02:47:27;6.70;;;1.45;;
25758;SDS011;13604;52.496;13.456;2022-07-06T02:49:53;9.77;;;2.30;;
25758;SDS011;13604;52.496;13.456;2022-07-06T02:52:18;8.55;;;1.88;;
25758;SDS011;13604;52.496;13.456;2022-07-06T02:54:44;7.55;;;1.70;;
25758;SDS011;13604;52.496;13.456;2022-07-06T02:57:09;4.82;;;1.48;;
25758;SDS011;13604;52.496;13.456;2022-07-06T02:59:34;5.00;;;1.55;;
25758;SDS011;13604;52.496;13.456;2022-07-06T03:02:01;10.55;;;1.85;;
25758;SDS011;13604;52.496;13.456;2022-07-06T03:04:26;5.43;;;1.75;;
25758;SDS011;13604;52.496;13.456;2022-07-06T03:06:52;8.00;;;1.65;;
25758;SDS011;13604;52.496;13.456;2022-07-06T03:09:17;2.38;;;1.42;;
25758;SDS011;13604;52.496;13.456;2022-07-06T03:11:42;4.43;;;2.05;;
25758;SDS011;13604;52.496;13.456;2022-07-06T03:14:08;3.88;;;2.08;;
25758;SDS011;13604;52.496;13.456;2022-07-06T03:16:33;6.28;;;1.77;;
25758;SDS011;13604;52.496;13.456;2022-07-06T03:18:58;4.47;;;1.60;;
25758;SDS011;13604;52.496;13.456;2022-07-06T03:21:24;4.78;;;1.77;;
25758;SDS011;13604;52.496;13.456;2022-07-06T03:23:49;3.22;;;1.60;;
25758;SDS011;13604;52.496;13.456;2022-07-06T03:26:15;7.63;;;1.90;;
25758;SDS011;13604;52.496;13.456;2022-07-06T03:28:40;5.70;;;1.65;;
25758;SDS011;13604;52.496;13.456;2022-07-06T03:31:05;5.93;;;1.92;;
25758;SDS011;13604;52.496;13.456;2022-07-06T03:33:31;7.47;;;1.73;;
25758;SDS011;13604;52.496;13.456;2022-07-06T03:35:56;6.40;;;1.80;;
25758;SDS011;13604;52.496;13.456;2022-07-06T03:38:22;4.60;;;1.90;;
25758;SDS011;13604;52.496;13.456;2022-07-06T03:40:47;6.10;;;2.20;;
25758;SDS011;13604;52.496;13.456;2022-07-06T03:43:12;5.40;;;1.52;;
25758;SDS011;13604;52.496;13.456;2022-07-06T03:45:38;4.05;;;1.63;;
25758;SDS011;13604;52.496;13.456;2022-07-06T03:48:03;2.17;;;1.40;;
25758;SDS011;13604;52.496;13.456;2022-07-06T03:50:28;4.35;;;1.60;;
25758;SDS011;13604;52.496;13.456;2022-07-06T03:52:54;7.88;;;1.80;;
25758;SDS011;13604;52.496;13.456;2022-07-06T03:55:19;3.42;;;1.67;;
25758;SDS011;13604;52.496;13.456;2022-07-06T03:57:44;3.30;;;1.65;;
25758;SDS011;13604;52.496;13.456;2022-07-06T04:00:10;6.78;;;2.00;;
25758;SDS011;13604;52.496;13.456;2022-07-06T04:02:35;3.72;;;1.80;;
25758;SDS011;13604;52.496;13.456;2022-07-06T04:05:01;7.00;;;1.95;;
25758;SDS011;13604;52.496;13.456;2022-07-06T04:07:26;4.63;;;1.80;;
25758;SDS011;13604;52.496;13.456;2022-07-06T04:09:52;6.07;;;1.63;;
25758;SDS011;13604;52.496;13.456;2022-07-06T04:12:17;4.30;;;1.80;;
25758;SDS011;13604;52.496;13.456;2022-07-06T04:14:42;5.25;;;1.98;;
25758;SDS011;13604;52.496;13.456;2022-07-06T04:17:08;8.25;;;1.60;;
25758;SDS011;13604;52.496;13.456;2022-07-06T04:19:52;3.17;;;1.48;;
25758;SDS011;13604;52.496;13.456;2022-07-06T04:22:18;7.45;;;1.67;;
25758;SDS011;13604;52.496;13.456;2022-07-06T04:24:43;5.53;;;1.65;;
25758;SDS011;13604;52.496;13.456;2022-07-06T04:27:09;6.63;;;1.45;;
25758;SDS011;13604;52.496;13.456;2022-07-06T04:29:34;5.72;;;1.73;;
25758;SDS011;13604;52.496;13.456;2022-07-06T04:31:59;3.90;;;1.83;;
25758;SDS011;13604;52.496;13.456;2022-07-06T04:34:25;6.85;;;1.88;;
25758;SDS011;13604;52.496;13.456;2022-07-06T04:36:50;5.70;;;1.70;;
25758;SDS011;13604;52.496;13.456;2022-07-06T04:39:15;6.25;;;1.23;;
25758;SDS011;13604;52.496;13.456;2022-07-06T04:41:40;5.13;;;1.73;;
25758;SDS011;13604;52.496;13.456;2022-07-06T04:44:06;4.40;;;1.48;;
25758;SDS011;13604;52.496;13.456;2022-07-06T04:46:31;16.08;;;2.13;;
25758;SDS011;13604;52.496;13.456;2022-07-06T04:48:56;4.63;;;1.45;;
25758;SDS011;13604;52.496;13.456;2022-07-06T04:51:22;4.57;;;1.65;;
25758;SDS011;13604;52.496;13.456;2022-07-06T04:53:47;5.15;;;1.55;;
25758;SDS011;13604;52.496;13.456;2022-07-06T04:56:12;6.53;;;1.60;;
25758;SDS011;13604;52.496;13.456;2022-07-06T04:58:37;6.22;;;1.45;;
25758;SDS011;13604;52.496;13.456;2022-07-06T05:01:03;8.30;;;1.45;;
25758;SDS011;13604;52.496;13.456;2022-07-06T05:03:28;7.55;;;1.92;;
25758;SDS011;13604;52.496;13.456;2022-07-06T05:05:53;12.45;;;1.80;;
25758;SDS011;13604;52.496;13.456;2022-07-06T05:08:19;4.68;;;1.30;;
25758;SDS011;13604;52.496;13.456;2022-07-06T05:10:44;7.57;;;2.17;;
25758;SDS011;13604;52.496;13.456;2022-07-06T05:13:10;5.63;;;1.70;;
25758;SDS011;13604;52.496;13.456;2022-07-06T05:15:35;6.75;;;2.00;;
25758;SDS011;13604;52.496;13.456;2022-07-06T05:18:00;5.93;;;2.22;;
25758;SDS011;13604;52.496;13.456;2022-07-06T05:20:26;5.72;;;1.70;;
25758;SDS011;13604;52.496;13.456;2022-07-06T05:22:51;7.22;;;1.80;;
25758;SDS011;13604;52.496;13.456;2022-07-06T05:25:16;3.88;;;1.40;;
25758;SDS011;13604;52.496;13.456;2022-07-06T05:27:42;3.30;;;1.48;;
25758;SDS011;13604;52.496;13.456;2022-07-06T05:30:07;7.00;;;1.58;;
25758;SDS011;13604;52.496;13.456;2022-07-06T05:32:33;5.53;;;1.73;;
25758;SDS011;13604;52.496;13.456;2022-07-06T05:34:58;7.55;;;1.85;;
25758;SDS011;13604;52.496;13.456;2022-07-06T05:37:23;8.90;;;1.67;;
25758;SDS011;13604;52.496;13.456;2022-07-06T05:39:49;3.95;;;1.50;;
25758;SDS011;13604;52.496;13.456;2022-07-06T05:42:15;7.55;;;1.50;;
25758;SDS011;13604;52.496;13.456;2022-07-06T05:44:40;2.85;;;1.35;;
25758;SDS011;13604;52.496;13.456;2022-07-06T05:47:06;8.10;;;1.48;;
25758;SDS011;13604;52.496;13.456;2022-07-06T05:49:50;3.95;;;1.33;;
25758;SDS011;13604;52.496;13.456;2022-07-06T05:52:33;3.20;;;1.27;;
25758;SDS011;13604;52.496;13.456;2022-07-06T05:54:59;8.85;;;1.70;;
25758;SDS011;13604;52.496;13.456;2022-07-06T05:57:24;8.23;;;1.42;;
25758;SDS011;13604;52.496;13.456;2022-07-06T05:59:49;4.55;;;1.90;;
25758;SDS011;13604;52.496;13.456;2022-07-06T06:02:15;9.10;;;1.65;;
25758;SDS011;13604;52.496;13.456;2022-07-06T06:04:40;4.07;;;1.25;;
25758;SDS011;13604;52.496;13.456;2022-07-06T06:07:05;6.15;;;1.35;;
25758;SDS011;13604;52.496;13.456;2022-07-06T06:09:31;7.38;;;1.50;;
25758;SDS011;13604;52.496;13.456;2022-07-06T06:11:56;4.63;;;1.67;;
25758;SDS011;13604;52.496;13.456;2022-07-06T06:14:21;5.57;;;1.55;;
25758;SDS011;13604;52.496;13.456;2022-07-06T06:16:46;3.83;;;1.52;;
25758;SDS011;13604;52.496;13.456;2022-07-06T06:19:12;4.28;;;1.40;;
25758;SDS011;13604;52.496;13.456;2022-07-06T06:21:37;9.23;;;1.55;;
25758;SDS011;13604;52.496;13.456;2022-07-06T06:24:02;4.13;;;1.30;;
25758;SDS011;13604;52.496;13.456;2022-07-06T06:26:28;3.03;;;1.17;;
25758;SDS011;13604;52.496;13.456;2022-07-06T06:28:53;3.25;;;1.30;;
25758;SDS011;13604;52.496;13.456;2022-07-06T06:31:18;6.10;;;1.42;;
25758;SDS011;13604;52.496;13.456;2022-07-06T06:33:43;12.90;;;2.50;;
25758;SDS011;13604;52.496;13.456;2022-07-06T06:36:09;3.75;;;1.27;;
25758;SDS011;13604;52.496;13.456;2022-07-06T06:38:34;5.28;;;1.70;;
25758;SDS011;13604;52.496;13.456;2022-07-06T06:41:00;8.27;;;1.63;;
25758;SDS011;13604;52.496;13.456;2022-07-06T06:43:26;13.23;;;1.77;;
25758;SDS011;13604;52.496;13.456;2022-07-06T06:45:52;5.75;;;1.40;;
25758;SDS011;13604;52.496;13.456;2022-07-06T06:48:17;9.95;;;1.77;;
25758;SDS011;13604;52.496;13.456;2022-07-06T06:50:44;3.80;;;1.83;;
25758;SDS011;13604;52.496;13.456;2022-07-06T06:53:10;5.68;;;1.90;;
25758;SDS011;13604;52.496;13.456;2022-07-06T06:55:35;6.15;;;1.60;;
25758;SDS011;13604;52.496;13.456;2022-07-06T06:58:01;4.70;;;1.60;;
25758;SDS011;13604;52.496;13.456;2022-07-06T07:00:26;8.93;;;1.48;;
25758;SDS011;13604;52.496;13.456;2022-07-06T07:02:51;6.85;;;1.55;;
25758;SDS011;13604;52.496;13.456;2022-07-06T07:05:17;6.57;;;1.63;;
25758;SDS011;13604;52.496;13.456;2022-07-06T07:07:42;12.25;;;1.80;;
25758;SDS011;13604;52.496;13.456;2022-07-06T07:10:08;6.40;;;1.20;;
25758;SDS011;13604;52.496;13.456;2022-07-06T07:12:33;4.20;;;1.20;;
25758;SDS011;13604;52.496;13.456;2022-07-06T07:14:59;6.32;;;1.63;;
25758;SDS011;13604;52.496;13.456;2022-07-06T07:17:25;7.10;;;1.38;;
25758;SDS011;13604;52.496;13.456;2022-07-06T07:19:51;6.00;;;2.20;;
25758;SDS011;13604;52.496;13.456;2022-07-06T07:22:16;2.67;;;1.20;;
25758;SDS011;13604;52.496;13.456;2022-07-06T07:24:41;4.68;;;1.38;;
25758;SDS011;13604;52.496;13.456;2022-07-06T07:27:07;4.30;;;1.60;;
25758;SDS011;13604;52.496;13.456;2022-07-06T07:29:32;9.52;;;1.50;;
25758;SDS011;13604;52.496;13.456;2022-07-06T07:31:57;5.95;;;1.23;;
25758;SDS011;13604;52.496;13.456;2022-07-06T07:34:23;5.70;;;1.85;;
25758;SDS011;13604;52.496;13.456;2022-07-06T07:36:48;4.43;;;1.20;;
25758;SDS011;13604;52.496;13.456;2022-07-06T07:39:13;4.95;;;1.67;;
25758;SDS011;13604;52.496;13.456;2022-07-06T07:41:38;8.73;;;1.60;;
25758;SDS011;13604;52.496;13.456;2022-07-06T07:44:04;7.47;;;1.30;;
25758;SDS011;13604;52.496;13.456;2022-07-06T07:46:29;5.35;;;1.40;;
25758;SDS011;13604;52.496;13.456;2022-07-06T07:48:55;2.88;;;1.63;;
25758;SDS011;13604;52.496;13.456;2022-07-06T07:51:20;5.43;;;1.27;;
25758;SDS011;13604;52.496;13.456;2022-07-06T07:53:45;4.43;;;1.20;;
25758;SDS011;13604;52.496;13.456;2022-07-06T07:56:11;5.25;;;1.27;;
25758;SDS011;13604;52.496;13.456;2022-07-06T07:58:37;4.45;;;1.00;;
25758;SDS011;13604;52.496;13.456;2022-07-06T08:01:02;2.90;;;1.17;;
25758;SDS011;13604;52.496;13.456;2022-07-06T08:03:29;5.85;;;1.13;;
25758;SDS011;13604;52.496;13.456;2022-07-06T08:05:54;5.50;;;1.33;;
25758;SDS011;13604;52.496;13.456;2022-07-06T08:08:20;3.83;;;0.90;;
25758;SDS011;13604;52.496;13.456;2022-07-06T08:10:45;8.05;;;1.02;;
25758;SDS011;13604;52.496;13.456;2022-07-06T08:13:10;3.60;;;1.02;;
25758;SDS011;13604;52.496;13.456;2022-07-06T08:15:36;4.57;;;0.90;;
25758;SDS011;13604;52.496;13.456;2022-07-06T08:18:02;6.47;;;1.45;;
25758;SDS011;13604;52.496;13.456;2022-07-06T08:20:28;10.35;;;1.50;;
25758;SDS011;13604;52.496;13.456;2022-07-06T08:22:54;4.25;;;0.98;;
25758;SDS011;13604;52.496;13.456;2022-07-06T08:25:19;4.63;;;1.35;;
25758;SDS011;13604;52.496;13.456;2022-07-06T08:27:45;4.22;;;1.25;;
25758;SDS011;13604;52.496;13.456;2022-07-06T08:30:13;2.88;;;1.20;;
25758;SDS011;13604;52.496;13.456;2022-07-06T08:32:39;7.20;;;1.20;;
25758;SDS011;13604;52.496;13.456;2022-07-06T08:35:05;4.35;;;1.10;;
25758;SDS011;13604;52.496;13.456;2022-07-06T08:37:31;3.20;;;1.10;;
25758;SDS011;13604;52.496;13.456;2022-07-06T08:39:56;9.40;;;1.38;;
25758;SDS011;13604;52.496;13.456;2022-07-06T08:42:21;3.70;;;0.90;;
25758;SDS011;13604;52.496;13.456;2022-07-06T08:44:54;2.90;;;1.02;;
25758;SDS011;13604;52.496;13.456;2022-07-06T08:47:20;5.63;;;0.90;;
25758;SDS011;13604;52.496;13.456;2022-07-06T08:49:48;4.47;;;1.00;;
25758;SDS011;13604;52.496;13.456;2022-07-06T08:52:13;5.68;;;1.05;;
25758;SDS011;13604;52.496;13.456;2022-07-06T08:54:39;9.10;;;1.30;;
25758;SDS011;13604;52.496;13.456;2022-07-06T08:57:05;4.85;;;1.00;;
25758;SDS011;13604;52.496;13.456;2022-07-06T08:59:30;3.03;;;0.98;;
25758;SDS011;13604;52.496;13.456;2022-07-06T09:01:55;3.28;;;1.08;;
25758;SDS011;13604;52.496;13.456;2022-07-06T09:04:21;5.03;;;1.33;;
25758;SDS011;13604;52.496;13.456;2022-07-06T09:06:48;4.03;;;0.60;;
25758;SDS011;13604;52.496;13.456;2022-07-06T09:09:16;8.30;;;1.10;;
25758;SDS011;13604;52.496;13.456;2022-07-06T09:11:45;3.17;;;0.80;;
25758;SDS011;13604;52.496;13.456;2022-07-06T09:14:11;5.28;;;1.40;;
25758;SDS011;13604;52.496;13.456;2022-07-06T09:16:36;5.88;;;1.15;;
25758;SDS011;13604;52.496;13.456;2022-07-06T09:19:01;4.22;;;1.00;;
25758;SDS011;13604;52.496;13.456;2022-07-06T09:21:28;3.20;;;1.02;;
25758;SDS011;13604;52.496;13.456;2022-07-06T09:23:58;5.18;;;0.88;;
25758;SDS011;13604;52.496;13.456;2022-07-06T09:26:30;2.58;;;0.93;;
25758;SDS011;13604;52.496;13.456;2022-07-06T09:28:56;4.00;;;1.00;;
25758;SDS011;13604;52.496;13.456;2022-07-06T09:31:22;3.40;;;0.70;;
25758;SDS011;13604;52.496;13.456;2022-07-06T09:34:03;1.83;;;0.80;;
25758;SDS011;13604;52.496;13.456;2022-07-06T09:36:45;5.15;;;1.05;;
25758;SDS011;13604;52.496;13.456;2022-07-06T09:41:55;6.40;;;0.98;;
25758;SDS011;13604;52.496;13.456;2022-07-06T09:46:52;7.07;;;1.38;;
25758;SDS011;13604;52.496;13.456;2022-07-06T09:49:21;3.55;;;1.00;;
25758;SDS011;13604;52.496;13.456;2022-07-06T09:51:47;2.95;;;0.82;;
25758;SDS011;13604;52.496;13.456;2022-07-06T09:54:14;4.57;;;0.95;;
25758;SDS011;13604;52.496;13.456;2022-07-06T09:56:42;1.95;;;1.00;;
25758;SDS011;13604;52.496;13.456;2022-07-06T09:59:09;4.75;;;0.82;;
25758;SDS011;13604;52.496;13.456;2022-07-06T10:01:39;3.40;;;0.93;;
25758;SDS011;13604;52.496;13.456;2022-07-06T10:04:09;1.98;;;0.98;;
25758;SDS011;13604;52.496;13.456;2022-07-06T10:06:37;2.88;;;0.80;;
25758;SDS011;13604;52.496;13.456;2022-07-06T10:09:06;3.47;;;0.90;;
25758;SDS011;13604;52.496;13.456;2022-07-06T10:11:34;4.95;;;0.90;;
25758;SDS011;13604;52.496;13.456;2022-07-06T10:14:03;2.63;;;0.80;;
25758;SDS011;13604;52.496;13.456;2022-07-06T10:16:30;4.25;;;0.73;;
25758;SDS011;13604;52.496;13.456;2022-07-06T10:18:55;3.55;;;0.90;;
25758;SDS011;13604;52.496;13.456;2022-07-06T10:21:22;3.25;;;0.80;;
25758;SDS011;13604;52.496;13.456;2022-07-06T10:23:48;5.47;;;1.00;;
25758;SDS011;13604;52.496;13.456;2022-07-06T10:26:15;4.10;;;0.77;;
25758;SDS011;13604;52.496;13.456;2022-07-06T10:28:41;5.80;;;1.02;;
25758;SDS011;13604;52.496;13.456;2022-07-06T10:31:07;4.13;;;1.10;;
25758;SDS011;13604;52.496;13.456;2022-07-06T10:33:33;6.10;;;1.20;;
25758;SDS011;13604;52.496;13.456;2022-07-06T10:36:00;9.27;;;1.20;;
25758;SDS011;13604;52.496;13.456;2022-07-06T10:38:32;3.15;;;0.98;;
25758;SDS011;13604;52.496;13.456;2022-07-06T10:41:02;2.77;;;1.00;;
25758;SDS011;13604;52.496;13.456;2022-07-06T10:43:38;5.03;;;0.85;;
25758;SDS011;13604;52.496;13.456;2022-07-06T10:46:14;3.97;;;1.10;;
25758;SDS011;13604;52.496;13.456;2022-07-06T10:48:42;5.63;;;0.80;;
25758;SDS011;13604;52.496;13.456;2022-07-06T10:51:23;4.75;;;1.00;;
25758;SDS011;13604;52.496;13.456;2022-07-06T10:53:56;2.90;;;0.93;;
25758;SDS011;13604;52.496;13.456;2022-07-06T10:56:31;3.83;;;1.05;;
25758;SDS011;13604;52.496;13.456;2022-07-06T10:59:01;3.97;;;1.10;;
25758;SDS011;13604;52.496;13.456;2022-07-06T11:04:42;1.83;;;0.80;;
25758;SDS011;13604;52.496;13.456;2022-07-06T11:07:12;3.72;;;0.90;;
25758;SDS011;13604;52.496;13.456;2022-07-06T11:09:39;4.53;;;0.70;;
25758;SDS011;13604;52.496;13.456;2022-07-06T11:12:16;2.20;;;0.70;;
25758;SDS011;13604;52.496;13.456;2022-07-06T11:14:43;2.03;;;0.90;;
25758;SDS011;13604;52.496;13.456;2022-07-06T11:17:10;0.95;;;0.73;;
25758;SDS011;13604;52.496;13.456;2022-07-06T11:19:35;3.22;;;1.08;;
25758;SDS011;13604;52.496;13.456;2022-07-06T11:22:08;3.92;;;0.95;;
25758;SDS011;13604;52.496;13.456;2022-07-06T11:24:35;1.77;;;1.00;;
25758;SDS011;13604;52.496;13.456;2022-07-06T11:27:02;1.88;;;0.93;;
25758;SDS011;13604;52.496;13.456;2022-07-06T11:29:28;1.25;;;0.77;;
25758;SDS011;13604;52.496;13.456;2022-07-06T11:31:56;5.45;;;1.10;;
25758;SDS011;13604;52.496;13.456;2022-07-06T11:34:26;3.30;;;1.08;;
25758;SDS011;13604;52.496;13.456;2022-07-06T11:37:04;8.98;;;1.20;;
25758;SDS011;13604;52.496;13.456;2022-07-06T11:39:34;5.60;;;1.30;;
25758;SDS011;13604;52.496;13.456;2022-07-06T11:42:07;2.20;;;0.65;;
25758;SDS011;13604;52.496;13.456;2022-07-06T11:44:36;4.18;;;1.05;;
25758;SDS011;13604;52.496;13.456;2022-07-06T11:47:02;2.00;;;0.70;;
25758;SDS011;13604;52.496;13.456;2022-07-06T11:49:32;3.95;;;0.90;;
25758;SDS011;13604;52.496;13.456;2022-07-06T11:51:59;5.28;;;0.98;;
25758;SDS011;13604;52.496;13.456;2022-07-06T11:54:25;2.80;;;0.93;;
25758;SDS011;13604;52.496;13.456;2022-07-06T11:56:52;2.08;;;1.00;;
25758;SDS011;13604;52.496;13.456;2022-07-06T11:59:22;3.42;;;1.52;;
25758;SDS011;13604;52.496;13.456;2022-07-06T12:01:59;3.17;;;0.80;;
25758;SDS011;13604;52.496;13.456;2022-07-06T12:04:25;2.00;;;0.75;;
25758;SDS011;13604;52.496;13.456;2022-07-06T12:06:51;4.25;;;0.90;;
25758;SDS011;13604;52.496;13.456;2022-07-06T12:09:16;2.45;;;0.50;;
25758;SDS011;13604;52.496;13.456;2022-07-06T12:11:43;4.95;;;0.65;;
25758;SDS011;13604;52.496;13.456;2022-07-06T12:14:16;6.20;;;0.98;;
25758;SDS011;13604;52.496;13.456;2022-07-06T12:16:43;2.77;;;1.03;;
25758;SDS011;13604;52.496;13.456;2022-07-06T12:19:09;1.55;;;0.60;;
25758;SDS011;13604;52.496;13.456;2022-07-06T12:21:36;7.15;;;0.95;;
25758;SDS011;13604;52.496;13.456;2022-07-06T12:24:07;11.23;;;1.13;;
25758;SDS011;13604;52.496;13.456;2022-07-06T12:26:39;4.78;;;0.98;;
25758;SDS011;13604;52.496;13.456;2022-07-06T12:29:25;7.53;;;0.80;;
25758;SDS011;13604;52.496;13.456;2022-07-06T12:32:18;7.20;;;1.10;;
25758;SDS011;13604;52.496;13.456;2022-07-06T12:35:08;5.68;;;0.82;;
25758;SDS011;13604;52.496;13.456;2022-07-06T12:37:54;2.78;;;0.80;;
25758;SDS011;13604;52.496;13.456;2022-07-06T12:40:24;4.95;;;1.00;;
25758;SDS011;13604;52.496;13.456;2022-07-06T12:42:51;4.95;;;0.75;;
25758;SDS011;13604;52.496;13.456;2022-07-06T12:45:16;2.97;;;1.00;;
25758;SDS011;13604;52.496;13.456;2022-07-06T12:47:48;3.13;;;0.80;;
25758;SDS011;13604;52.496;13.456;2022-07-06T12:50:29;1.27;;;0.73;;
25758;SDS011;13604;52.496;13.456;2022-07-06T12:52:57;3.22;;;0.82;;
25758;SDS011;13604;52.496;13.456;2022-07-06T12:55:25;2.08;;;0.80;;
25758;SDS011;13604;52.496;13.456;2022-07-06T12:57:51;1.92;;;0.98;;
25758;SDS011;13604;52.496;13.456;2022-07-06T13:00:17;1.95;;;0.70;;
25758;SDS011;13604;52.496;13.456;2022-07-06T13:02:47;1.90;;;0.75;;
25758;SDS011;13604;52.496;13.456;2022-07-06T13:05:18;1.30;;;0.70;;
25758;SDS011;13604;52.496;13.456;2022-07-06T13:07:54;2.53;;;0.85;;
25758;SDS011;13604;52.496;13.456;2022-07-06T13:10:21;4.88;;;1.20;;
25758;SDS011;13604;52.496;13.456;2022-07-06T13:12:47;3.53;;;0.85;;
25758;SDS011;13604;52.496;13.456;2022-07-06T13:15:13;3.05;;;0.95;;
25758;SDS011;13604;52.496;13.456;2022-07-06T13:17:39;4.90;;;0.75;;
25758;SDS011;13604;52.496;13.456;2022-07-06T13:20:05;6.35;;;0.80;;
25758;SDS011;13604;52.496;13.456;2022-07-06T13:22:35;5.50;;;1.10;;
25758;SDS011;13604;52.496;13.456;2022-07-06T13:25:01;2.10;;;0.57;;
25758;SDS011;13604;52.496;13.456;2022-07-06T13:27:27;3.67;;;1.00;;
25758;SDS011;13604;52.496;13.456;2022-07-06T13:29:52;1.67;;;0.70;;
25758;SDS011;13604;52.496;13.456;2022-07-06T13:32:19;3.95;;;1.02;;
25758;SDS011;13604;52.496;13.456;2022-07-06T13:34:44;6.70;;;1.20;;
25758;SDS011;13604;52.496;13.456;2022-07-06T13:37:09;4.88;;;0.98;;
25758;SDS011;13604;52.496;13.456;2022-07-06T13:39:35;2.50;;;0.93;;
25758;SDS011;13604;52.496;13.456;2022-07-06T13:42:00;3.45;;;1.02;;
25758;SDS011;13604;52.496;13.456;2022-07-06T13:44:25;4.50;;;1.25;;
25758;SDS011;13604;52.496;13.456;2022-07-06T13:46:51;2.13;;;0.73;;
25758;SDS011;13604;52.496;13.456;2022-07-06T13:49:16;5.65;;;1.20;;
25758;SDS011;13604;52.496;13.456;2022-07-06T13:51:42;4.15;;;0.80;;
25758;SDS011;13604;52.496;13.456;2022-07-06T13:54:07;1.88;;;0.73;;
25758;SDS011;13604;52.496;13.456;2022-07-06T13:56:33;5.07;;;0.88;;
25758;SDS011;13604;52.496;13.456;2022-07-06T13:58:59;2.75;;;1.10;;
25758;SDS011;13604;52.496;13.456;2022-07-06T14:01:24;3.42;;;0.70;;
25758;SDS011;13604;52.496;13.456;2022-07-06T14:03:50;3.60;;;0.88;;
25758;SDS011;13604;52.496;13.456;2022-07-06T14:06:15;7.93;;;1.00;;
25758;SDS011;13604;52.496;13.456;2022-07-06T14:08:41;4.20;;;0.93;;
25758;SDS011;13604;52.496;13.456;2022-07-06T14:11:07;2.50;;;0.73;;
25758;SDS011;13604;52.496;13.456;2022-07-06T14:13:34;0.85;;;0.50;;
25758;SDS011;13604;52.496;13.456;2022-07-06T14:16:01;2.28;;;0.85;;
25758;SDS011;13604;52.496;13.456;2022-07-06T14:18:27;3.53;;;0.40;;
25758;SDS011;13604;52.496;13.456;2022-07-06T14:20:52;1.70;;;0.50;;
25758;SDS011;13604;52.496;13.456;2022-07-06T14:23:18;2.60;;;0.93;;
25758;SDS011;13604;52.496;13.456;2022-07-06T14:25:44;1.35;;;0.60;;
25758;SDS011;13604;52.496;13.456;2022-07-06T14:28:11;2.50;;;0.68;;
25758;SDS011;13604;52.496;13.456;2022-07-06T14:30:38;1.58;;;0.80;;
25758;SDS011;13604;52.496;13.456;2022-07-06T14:33:04;3.13;;;0.60;;
25758;SDS011;13604;52.496;13.456;2022-07-06T14:35:37;3.92;;;0.60;;
25758;SDS011;13604;52.496;13.456;2022-07-06T14:38:08;2.22;;;0.60;;
25758;SDS011;13604;52.496;13.456;2022-07-06T14:40:34;1.77;;;0.60;;
25758;SDS011;13604;52.496;13.456;2022-07-06T14:43:00;3.45;;;0.80;;